createdAt,value
2018-08-11T00:02:19.420Z,54.40
2018-08-11T00:04:47.000Z,54.90
2018-08-11T00:07:14.591Z,54.20
2018-08-11T00:09:42.284Z,54.50
2018-08-11T00:12:09.826Z,54.80
2018-08-11T00:14:37.460Z,55.00
2018-08-11T00:17:05.087Z,54.90
2018-08-11T00:19:32.782Z,55.00
2018-08-11T00:22:00.385Z,55.20
2018-08-11T00:24:27.975Z,55.50
2018-08-11T00:26:55.573Z,55.70
2018-08-11T00:29:23.182Z,56.00
2018-08-11T00:31:50.689Z,56.20
2018-08-11T00:34:18.336Z,56.50
2018-08-11T00:36:45.923Z,56.60
2018-08-11T00:39:13.489Z,56.60
2018-08-11T00:41:41.177Z,56.80
2018-08-11T00:44:09.744Z,56.70
2018-08-11T00:46:37.763Z,56.50
2018-08-11T00:49:05.410Z,56.20
2018-08-11T00:51:33.063Z,56.40
2018-08-11T00:54:00.696Z,56.50
2018-08-11T00:56:28.216Z,56.90
2018-08-11T00:58:55.826Z,56.80
2018-08-11T01:01:23.369Z,56.90
2018-08-11T01:03:51.020Z,57.10
2018-08-11T01:06:18.594Z,57.00
2018-08-11T01:08:47.096Z,57.20
2018-08-11T01:11:14.734Z,57.30
2018-08-11T01:13:42.335Z,57.40
2018-08-11T01:16:09.885Z,57.50
2018-08-11T01:18:37.552Z,57.50
2018-08-11T01:21:05.165Z,57.60
2018-08-11T01:23:32.769Z,57.60
2018-08-11T01:26:00.716Z,57.80
2018-08-11T01:28:28.390Z,57.60
2018-08-11T01:30:56.028Z,58.00
2018-08-11T01:33:23.592Z,58.30
2018-08-11T01:35:51.432Z,58.50
2018-08-11T01:38:19.012Z,58.10
2018-08-11T01:40:46.557Z,58.20
2018-08-11T01:43:14.150Z,58.20
2018-08-11T01:45:41.707Z,58.10
2018-08-11T01:48:09.284Z,58.20
2018-08-11T01:50:36.911Z,58.20
2018-08-11T01:53:04.653Z,58.30
2018-08-11T01:55:32.356Z,58.20
2018-08-11T01:57:59.926Z,58.30
2018-08-11T02:00:27.482Z,58.10
2018-08-11T02:02:55.042Z,58.10
2018-08-11T02:05:22.721Z,58.30
2018-08-11T02:07:50.279Z,58.10
2018-08-11T02:10:19.287Z,58.10
2018-08-11T02:12:47.794Z,58.10
2018-08-11T02:15:15.691Z,58.30
2018-08-11T02:17:43.251Z,58.30
2018-08-11T02:20:12.925Z,58.40
2018-08-11T02:22:41.239Z,58.80
2018-08-11T02:25:09.551Z,59.00
2018-08-11T02:27:37.854Z,58.40
2018-08-11T02:30:07.306Z,58.30
2018-08-11T02:32:34.878Z,58.40
2018-08-11T02:35:02.984Z,58.50
2018-08-11T02:37:30.531Z,59.00
2018-08-11T02:39:58.076Z,58.40
2018-08-11T02:42:25.617Z,58.30
2018-08-11T02:44:53.224Z,58.20
2018-08-11T02:47:20.798Z,58.50
2018-08-11T02:49:48.476Z,58.70
2018-08-11T02:52:16.051Z,58.70
2018-08-11T02:54:43.623Z,59.60
2018-08-11T02:57:11.136Z,59.40
2018-08-11T02:59:38.707Z,58.60
2018-08-11T03:02:06.240Z,58.80
2018-08-11T03:04:33.805Z,58.90
2018-08-11T03:07:01.356Z,59.10
2018-08-11T03:09:28.913Z,59.90
2018-08-11T03:11:56.493Z,59.00
2018-08-11T03:14:24.053Z,58.90
2018-08-11T03:16:51.580Z,59.10
2018-08-11T03:19:19.134Z,59.70
2018-08-11T03:21:46.652Z,58.90
2018-08-11T03:24:14.326Z,58.80
2018-08-11T03:26:41.871Z,59.70
2018-08-11T03:29:09.420Z,59.00
2018-08-11T03:31:37.036Z,58.60
2018-08-11T03:34:04.661Z,58.70
2018-08-11T03:36:32.286Z,59.10
2018-08-11T03:38:59.867Z,59.10
2018-08-11T03:41:27.990Z,59.10
2018-08-11T03:43:55.531Z,58.90
2018-08-11T03:46:23.119Z,58.80
2018-08-11T03:48:50.723Z,58.90
2018-08-11T03:51:18.331Z,59.30
2018-08-11T03:53:45.984Z,58.90
2018-08-11T03:56:13.632Z,59.00
2018-08-11T03:58:41.546Z,58.90
2018-08-11T04:01:09.401Z,58.80
2018-08-11T04:03:36.983Z,58.90
2018-08-11T04:06:04.541Z,59.00
2018-08-11T04:08:32.445Z,59.50
2018-08-11T04:10:59.999Z,59.30
2018-08-11T04:13:27.631Z,59.20
2018-08-11T04:15:55.240Z,59.50
2018-08-11T04:18:22.959Z,59.70
2018-08-11T04:20:50.674Z,59.70
2018-08-11T04:23:18.218Z,60.00
2018-08-11T04:25:45.791Z,60.30
2018-08-11T04:28:13.403Z,60.50
2018-08-11T04:30:47.571Z,60.50
2018-08-11T04:33:15.144Z,60.50
2018-08-11T04:35:42.783Z,60.60
2018-08-11T04:38:10.446Z,60.70
2018-08-11T04:40:38.234Z,60.90
2018-08-11T04:43:05.973Z,61.00
2018-08-11T04:45:33.542Z,60.90
2018-08-11T04:48:01.191Z,61.00
2018-08-11T04:50:28.761Z,61.00
2018-08-11T04:52:56.523Z,61.20
2018-08-11T04:55:24.112Z,61.90
2018-08-11T04:57:51.653Z,61.80
2018-08-11T05:00:19.312Z,61.90
2018-08-11T05:02:46.886Z,61.40
2018-08-11T05:05:14.519Z,61.00
2018-08-11T05:07:42.063Z,61.70
2018-08-11T05:10:09.659Z,61.20
2018-08-11T05:12:37.281Z,61.10
2018-08-11T05:15:05.538Z,61.60
2018-08-11T05:17:33.164Z,61.90
2018-08-11T05:20:00.812Z,62.20
2018-08-11T05:22:28.331Z,62.70
2018-08-11T05:24:55.904Z,62.30
2018-08-11T05:27:23.717Z,62.80
2018-08-11T05:29:51.275Z,63.20
2018-08-11T05:32:18.877Z,62.20
2018-08-11T05:34:46.564Z,61.80
2018-08-11T05:37:14.434Z,61.30
2018-08-11T05:39:42.068Z,61.00
2018-08-11T05:42:09.671Z,60.70
2018-08-11T05:44:37.256Z,60.50
2018-08-11T05:47:05.232Z,60.30
2018-08-11T05:49:32.773Z,60.00
2018-08-11T05:52:00.580Z,59.40
2018-08-11T05:54:28.352Z,59.00
2018-08-11T05:56:55.974Z,59.20
2018-08-11T05:59:23.678Z,58.50
2018-08-11T06:01:51.266Z,56.90
2018-08-11T06:04:18.908Z,55.50
2018-08-11T06:06:46.514Z,54.70
2018-08-11T06:09:14.048Z,54.00
2018-08-11T06:11:41.647Z,53.90
2018-08-11T06:14:09.655Z,54.20
2018-08-11T06:16:37.543Z,53.30
2018-08-11T06:19:05.391Z,53.70
2018-08-11T06:21:33.024Z,52.80
2018-08-11T06:24:00.571Z,53.10
2018-08-11T06:26:28.102Z,52.80
2018-08-11T06:28:55.728Z,52.70
2018-08-11T06:31:23.340Z,52.40
2018-08-11T06:33:51.329Z,53.00
2018-08-11T06:36:19.260Z,51.90
2018-08-11T06:38:46.811Z,51.60
2018-08-11T06:41:14.404Z,50.30
2018-08-11T06:43:41.984Z,50.40
2018-08-11T06:46:09.651Z,50.40
2018-08-11T06:48:37.232Z,50.30
2018-08-11T06:51:04.920Z,50.00
2018-08-11T06:53:32.456Z,48.90
2018-08-11T06:55:59.992Z,49.30
2018-08-11T06:58:27.584Z,48.90
2018-08-11T07:00:55.119Z,48.20
2018-08-11T07:03:22.735Z,49.00
2018-08-11T07:05:50.392Z,49.50
2018-08-11T07:08:18.189Z,49.40
2018-08-11T07:10:45.764Z,48.50
2018-08-11T07:13:13.311Z,48.60
2018-08-11T07:15:41.335Z,49.00
2018-08-11T07:18:08.896Z,49.20
2018-08-11T07:20:36.500Z,49.30
2018-08-11T07:23:04.105Z,48.80
2018-08-11T07:25:31.701Z,48.00
2018-08-11T07:27:59.304Z,46.80
2018-08-11T07:30:26.890Z,46.50
2018-08-11T07:32:54.747Z,46.80
2018-08-11T07:35:22.341Z,46.70
2018-08-11T07:37:49.930Z,46.20
2018-08-11T07:40:17.568Z,45.20
2018-08-11T07:42:45.294Z,45.50
2018-08-11T07:45:12.980Z,46.10
2018-08-11T07:47:40.612Z,45.80
2018-08-11T07:50:08.256Z,45.20
2018-08-11T07:52:36.032Z,45.30
2018-08-11T07:55:03.710Z,44.90
2018-08-11T07:57:31.313Z,44.50
2018-08-11T07:59:58.898Z,45.00
2018-08-11T08:02:26.467Z,43.80
2018-08-11T08:04:54.021Z,43.80
2018-08-11T08:07:21.644Z,43.20
2018-08-11T08:09:49.229Z,43.00
2018-08-11T08:12:17.068Z,43.10
2018-08-11T08:14:44.637Z,42.70
2018-08-11T08:17:12.189Z,42.60
2018-08-11T08:19:40.284Z,43.00
2018-08-11T08:22:07.960Z,42.90
2018-08-11T08:24:35.543Z,41.80
2018-08-11T08:27:03.139Z,42.20
2018-08-11T08:29:30.729Z,41.80
2018-08-11T08:31:58.733Z,42.50
2018-08-11T08:34:33.115Z,41.90
2018-08-11T08:37:00.844Z,42.00
2018-08-11T08:39:28.435Z,42.10
2018-08-11T08:41:56.311Z,42.00
2018-08-11T08:44:24.448Z,42.30
2018-08-11T08:46:52.833Z,42.40
2018-08-11T08:49:20.702Z,40.80
2018-08-11T08:51:48.503Z,40.10
2018-08-11T08:54:17.554Z,39.90
2018-08-11T08:56:45.107Z,39.60
2018-08-11T08:59:12.937Z,39.30
2018-08-11T09:01:40.452Z,39.20
2018-08-11T09:04:08.076Z,39.20
2018-08-11T09:06:35.635Z,39.50
2018-08-11T09:09:05.082Z,39.30
2018-08-11T09:11:32.671Z,39.20
2018-08-11T09:14:00.265Z,39.10
2018-08-11T09:16:27.863Z,38.30
2018-08-11T09:18:55.634Z,39.30
2018-08-11T09:21:23.312Z,38.00
2018-08-11T09:23:51.092Z,38.00
2018-08-11T09:26:18.664Z,37.70
2018-08-11T09:28:46.276Z,37.30
2018-08-11T09:31:14.067Z,37.20
2018-08-11T09:33:41.788Z,37.60
2018-08-11T09:36:09.351Z,37.10
2018-08-11T09:38:36.975Z,36.80
2018-08-11T09:41:04.968Z,37.20
2018-08-11T09:43:32.682Z,36.30
2018-08-11T09:46:00.555Z,36.70
2018-08-11T09:48:28.299Z,35.40
2018-08-11T09:50:55.947Z,34.50
2018-08-11T09:53:23.502Z,35.30
2018-08-11T09:55:51.333Z,34.50
2018-08-11T09:58:18.954Z,35.20
2018-08-11T10:00:48.407Z,35.30
2018-08-11T10:03:16.199Z,34.30
2018-08-11T10:05:43.816Z,34.90
2018-08-11T10:08:11.447Z,35.40
2018-08-11T10:10:39.184Z,35.40
2018-08-11T10:13:06.996Z,34.40
2018-08-11T10:15:34.547Z,34.10
2018-08-11T10:18:02.160Z,34.10
2018-08-11T10:20:29.739Z,35.00
2018-08-11T10:22:57.679Z,35.00
2018-08-11T10:25:25.425Z,35.00
2018-08-11T10:27:53.004Z,35.90
2018-08-11T10:30:20.636Z,35.20
2018-08-11T10:32:48.255Z,35.40
2018-08-11T10:35:15.848Z,35.20
2018-08-11T10:37:43.891Z,34.60
2018-08-11T10:40:11.634Z,35.80
2018-08-11T10:42:39.128Z,35.70
2018-08-11T10:45:06.968Z,35.40
2018-08-11T10:47:34.993Z,35.20
2018-08-11T10:50:02.649Z,34.90
2018-08-11T10:52:30.456Z,34.30
2018-08-11T10:54:58.338Z,33.50
2018-08-11T10:57:26.108Z,32.60
2018-08-11T10:59:54.823Z,32.80
2018-08-11T11:02:22.632Z,32.30
2018-08-11T11:04:50.638Z,32.60
2018-08-11T11:07:18.280Z,32.80
2018-08-11T11:09:45.915Z,31.80
2018-08-11T11:12:13.524Z,32.20
2018-08-11T11:14:41.104Z,31.90
2018-08-11T11:17:08.757Z,32.60
2018-08-11T11:19:36.415Z,33.10
2018-08-11T11:22:03.975Z,31.80
2018-08-11T11:24:31.599Z,31.70
2018-08-11T11:26:59.159Z,32.20
2018-08-11T11:29:26.767Z,32.00
2018-08-11T11:31:54.751Z,32.80
2018-08-11T11:34:22.469Z,31.80
2018-08-11T11:36:50.125Z,31.30
2018-08-11T11:39:17.789Z,30.70
2018-08-11T11:41:45.509Z,31.10
2018-08-11T11:44:13.972Z,31.20
2018-08-11T11:46:41.568Z,31.60
2018-08-11T11:49:09.231Z,31.60
2018-08-11T11:51:36.832Z,31.70
2018-08-11T11:54:11.400Z,30.50
2018-08-11T11:56:39.208Z,30.20
2018-08-11T11:59:06.879Z,29.80
2018-08-11T12:01:34.516Z,30.10
2018-08-11T12:04:02.205Z,30.00
2018-08-11T12:06:30.185Z,30.60
2018-08-11T12:08:57.768Z,30.80
2018-08-11T12:11:25.357Z,30.60
2018-08-11T12:13:54.639Z,30.60
2018-08-11T12:16:22.515Z,30.10
2018-08-11T12:18:50.235Z,30.00
2018-08-11T12:21:17.870Z,29.80
2018-08-11T12:23:45.565Z,29.10
2018-08-11T12:26:14.368Z,29.20
2018-08-11T12:28:41.936Z,30.70
2018-08-11T12:31:09.926Z,29.10
2018-08-11T12:33:37.601Z,29.00
2018-08-11T12:36:05.191Z,28.40
2018-08-11T12:38:33.031Z,29.30
2018-08-11T12:41:00.844Z,30.40
2018-08-11T12:43:29.367Z,30.60
2018-08-11T12:45:57.241Z,30.00
2018-08-11T12:48:24.743Z,30.40
2018-08-11T12:50:52.359Z,33.80
2018-08-11T12:53:20.077Z,30.60
2018-08-11T12:55:47.735Z,29.70
2018-08-11T12:58:15.351Z,29.80
2018-08-11T13:00:42.963Z,31.00
2018-08-11T13:03:10.941Z,30.30
2018-08-11T13:05:39.668Z,31.70
2018-08-11T13:08:07.281Z,29.80
2018-08-11T13:10:41.563Z,30.00
2018-08-11T13:13:09.396Z,30.00
2018-08-11T13:15:37.144Z,28.80
2018-08-11T13:18:05.180Z,28.60
2018-08-11T13:20:32.752Z,28.60
2018-08-11T13:23:00.749Z,27.80
2018-08-11T13:25:28.315Z,28.50
2018-08-11T13:27:55.871Z,28.60
2018-08-11T13:30:23.796Z,28.40
2018-08-11T13:32:51.355Z,27.90
2018-08-11T13:35:18.968Z,27.70
2018-08-11T13:37:46.579Z,28.40
2018-08-11T13:40:14.424Z,28.30
2018-08-11T13:42:41.990Z,28.50
2018-08-11T13:45:09.584Z,28.50
2018-08-11T13:47:37.195Z,27.70
2018-08-11T13:50:05.889Z,27.50
2018-08-11T13:52:33.561Z,27.30
2018-08-11T13:55:01.195Z,27.30
2018-08-11T13:57:28.786Z,27.30
2018-08-11T13:59:56.336Z,27.50
2018-08-11T14:02:24.091Z,27.80
2018-08-11T14:04:51.679Z,27.40
2018-08-11T14:07:19.280Z,27.80
2018-08-11T14:09:47.125Z,27.50
2018-08-11T14:12:14.704Z,27.60
2018-08-11T14:14:42.711Z,28.20
2018-08-11T14:17:10.551Z,28.30
2018-08-11T14:19:38.399Z,28.10
2018-08-11T14:22:06.007Z,28.00
2018-08-11T14:24:33.575Z,28.10
2018-08-11T14:27:01.172Z,28.40
2018-08-11T14:29:28.707Z,28.10
2018-08-11T14:31:56.277Z,28.10
2018-08-11T14:34:23.950Z,28.50
2018-08-11T14:36:52.325Z,28.60
2018-08-11T14:39:20.288Z,28.10
2018-08-11T14:41:48.231Z,28.10
2018-08-11T14:44:15.831Z,28.60
2018-08-11T14:46:43.892Z,28.30
2018-08-11T14:49:11.455Z,28.80
2018-08-11T14:51:39.625Z,29.20
2018-08-11T14:54:07.416Z,28.70
2018-08-11T14:56:35.038Z,28.70
2018-08-11T14:59:02.656Z,28.40
2018-08-11T15:01:30.511Z,28.20
2018-08-11T15:03:58.520Z,28.70
2018-08-11T15:06:28.238Z,28.40
2018-08-11T15:08:55.788Z,28.80
2018-08-11T15:11:23.407Z,28.10
2018-08-11T15:14:22.860Z,28.30
2018-08-11T15:16:50.556Z,28.80
2018-08-11T15:19:24.942Z,28.80
2018-08-11T15:21:52.761Z,28.10
2018-08-11T15:24:20.457Z,28.20
2018-08-11T15:26:48.267Z,27.90
2018-08-11T15:29:15.858Z,28.00
2018-08-11T15:31:43.619Z,28.00
2018-08-11T15:34:11.243Z,28.00
2018-08-11T15:36:38.840Z,28.40
2018-08-11T15:39:08.371Z,28.30
2018-08-11T15:41:35.964Z,28.80
2018-08-11T15:44:03.626Z,28.20
2018-08-11T15:46:31.188Z,28.40
2018-08-11T15:48:58.854Z,28.80
2018-08-11T15:51:26.520Z,29.50
2018-08-11T15:53:54.248Z,29.00
2018-08-11T15:56:21.887Z,29.00
2018-08-11T15:58:49.492Z,28.70
2018-08-11T16:01:17.052Z,28.60
2018-08-11T16:03:44.796Z,28.60
2018-08-11T16:06:12.428Z,28.80
2018-08-11T16:08:39.978Z,28.90
2018-08-11T16:11:07.633Z,28.40
2018-08-11T16:13:35.219Z,28.50
2018-08-11T16:16:03.036Z,29.10
2018-08-11T16:18:30.653Z,29.20
2018-08-11T16:20:58.221Z,29.40
2018-08-11T16:23:25.815Z,29.50
2018-08-11T16:25:53.372Z,30.00
2018-08-11T16:28:20.971Z,29.70
2018-08-11T16:30:48.530Z,29.80
2018-08-11T16:33:16.079Z,29.50
2018-08-11T16:35:43.692Z,29.90
2018-08-11T16:38:11.324Z,29.70
2018-08-11T16:40:46.227Z,30.00
2018-08-11T16:43:13.817Z,30.10
2018-08-11T16:45:41.956Z,30.00
2018-08-11T16:48:09.696Z,30.10
2018-08-11T16:50:37.248Z,30.20
2018-08-11T16:53:04.924Z,30.00
2018-08-11T16:55:32.897Z,30.80
2018-08-11T16:58:00.490Z,30.20
2018-08-11T17:00:28.519Z,30.20
2018-08-11T17:02:56.069Z,30.30
2018-08-11T17:05:23.686Z,29.70
2018-08-11T17:07:51.499Z,29.80
2018-08-11T17:10:19.089Z,30.00
2018-08-11T17:12:46.679Z,30.00
2018-08-11T17:15:14.570Z,30.00
2018-08-11T17:17:42.351Z,30.10
2018-08-11T17:20:09.939Z,30.20
2018-08-11T17:22:37.499Z,30.50
2018-08-11T17:25:05.244Z,30.20
2018-08-11T17:27:33.932Z,30.40
2018-08-11T17:30:01.488Z,30.70
2018-08-11T17:32:29.357Z,30.60
2018-08-11T17:34:56.956Z,30.90
2018-08-11T17:37:24.554Z,31.20
2018-08-11T17:39:52.112Z,31.30
2018-08-11T17:42:19.728Z,31.40
2018-08-11T17:44:47.299Z,31.50
2018-08-11T17:47:15.113Z,31.40
2018-08-11T17:49:42.659Z,31.60
2018-08-11T17:52:10.267Z,31.80
2018-08-11T17:54:37.955Z,31.90
2018-08-11T17:57:05.634Z,32.10
2018-08-11T17:59:33.223Z,31.90
2018-08-11T18:02:00.997Z,32.00
2018-08-11T18:04:28.567Z,32.20
2018-08-11T18:06:57.195Z,32.40
2018-08-11T18:09:24.772Z,32.50
2018-08-11T18:11:52.359Z,32.50
2018-08-11T18:14:22.586Z,32.70
2018-08-11T18:16:50.499Z,32.70
2018-08-11T18:19:18.130Z,33.00
2018-08-11T18:21:45.975Z,32.90
2018-08-11T18:24:13.552Z,32.80
2018-08-11T18:26:41.316Z,32.90
2018-08-11T18:29:08.991Z,33.10
2018-08-11T18:31:36.716Z,33.30
2018-08-11T18:34:04.399Z,33.40
2018-08-11T18:36:32.044Z,33.50
2018-08-11T18:38:59.688Z,33.50
2018-08-11T18:41:27.340Z,33.60
2018-08-11T18:43:54.927Z,33.70
2018-08-11T18:46:22.599Z,33.80
2018-08-11T18:48:50.176Z,33.80
2018-08-11T18:51:17.811Z,34.00
2018-08-11T18:53:45.456Z,34.00
2018-08-11T18:56:13.096Z,34.40
2018-08-11T18:58:40.675Z,34.50
2018-08-11T19:01:08.370Z,34.60
2018-08-11T19:03:35.996Z,34.60
2018-08-11T19:06:03.741Z,34.70
2018-08-11T19:08:31.322Z,34.70
2018-08-11T19:10:58.912Z,34.90
2018-08-11T19:13:26.509Z,35.50
2018-08-11T19:15:54.189Z,34.90
2018-08-11T19:18:28.598Z,35.20
2018-08-11T19:20:56.956Z,35.50
2018-08-11T19:23:24.792Z,35.80
2018-08-11T19:25:52.416Z,35.80
2018-08-11T19:28:19.975Z,36.00
2018-08-11T19:30:47.560Z,37.10
2018-08-11T19:33:15.188Z,36.90
2018-08-11T19:35:42.759Z,36.90
2018-08-11T19:38:10.603Z,37.10
2018-08-11T19:40:38.204Z,37.20
2018-08-11T19:43:05.800Z,37.60
2018-08-11T19:45:33.792Z,37.80
2018-08-11T19:48:01.532Z,38.10
2018-08-11T19:50:29.382Z,38.30
2018-08-11T19:52:57.376Z,38.50
2018-08-11T19:55:25.124Z,38.80
2018-08-11T19:57:52.911Z,39.00
2018-08-11T20:00:20.550Z,39.30
2018-08-11T20:02:48.109Z,39.40
2018-08-11T20:05:15.819Z,39.70
2018-08-11T20:07:43.684Z,39.80
2018-08-11T20:10:11.383Z,40.10
2018-08-11T20:12:39.054Z,40.20
2018-08-11T20:15:08.384Z,40.30
2018-08-11T20:17:36.029Z,40.70
2018-08-11T20:20:05.040Z,40.80
2018-08-11T20:22:32.767Z,41.00
2018-08-11T20:25:02.189Z,41.00
2018-08-11T20:27:29.992Z,41.00
2018-08-11T20:29:57.724Z,41.10
2018-08-11T20:32:26.106Z,41.30
2018-08-11T20:34:53.920Z,41.40
2018-08-11T20:37:21.660Z,41.40
2018-08-11T20:39:49.365Z,41.70
2018-08-11T20:42:17.025Z,41.90
2018-08-11T20:44:44.711Z,42.00
2018-08-11T20:47:13.621Z,42.40
2018-08-11T20:49:41.399Z,42.70
2018-08-11T20:52:08.981Z,42.70
2018-08-11T20:54:36.705Z,42.90
2018-08-11T20:57:05.736Z,42.90
2018-08-11T20:59:33.427Z,43.00
2018-08-11T21:02:01.020Z,43.00
2018-08-11T21:04:28.749Z,43.30
2018-08-11T21:06:56.379Z,43.30
2018-08-11T21:09:24.584Z,43.30
2018-08-11T21:11:52.204Z,43.70
2018-08-11T21:14:19.953Z,43.80
2018-08-11T21:16:47.628Z,43.60
2018-08-11T21:19:15.481Z,43.70
2018-08-11T21:21:43.376Z,44.10
2018-08-11T21:24:11.116Z,44.00
2018-08-11T21:26:38.745Z,44.10
2018-08-11T21:29:06.412Z,44.00
2018-08-11T21:31:34.125Z,44.30
2018-08-11T21:34:03.296Z,45.10
2018-08-11T21:36:30.872Z,44.60
2018-08-11T21:38:59.187Z,44.90
2018-08-11T21:41:26.864Z,45.30
2018-08-11T21:43:55.963Z,45.40
2018-08-11T21:46:23.707Z,45.70
2018-08-11T21:48:51.299Z,45.70
2018-08-11T21:51:19.165Z,45.70
2018-08-11T21:53:46.872Z,45.80
2018-08-11T21:56:14.503Z,45.70
2018-08-11T21:58:42.284Z,45.80
2018-08-11T22:01:12.464Z,45.80
2018-08-11T22:03:40.863Z,45.40
2018-08-11T22:06:08.655Z,46.10
2018-08-11T22:08:36.574Z,46.20
2018-08-11T22:11:05.166Z,47.10
2018-08-11T22:13:34.064Z,46.50
2018-08-11T22:16:02.832Z,46.80
2018-08-11T22:18:30.794Z,46.90
2018-08-11T22:20:58.454Z,47.10
2018-08-11T22:23:26.119Z,47.10
2018-08-11T22:25:53.984Z,47.30
2018-08-11T22:28:21.684Z,47.50
2018-08-11T22:30:50.699Z,47.80
2018-08-11T22:33:18.372Z,47.70
2018-08-11T22:35:46.060Z,47.80
2018-08-11T22:38:13.768Z,47.50
2018-08-11T22:40:41.436Z,47.70
2018-08-11T22:43:09.107Z,47.80
2018-08-11T22:45:37.080Z,47.90
2018-08-11T22:48:06.185Z,48.00
2018-08-11T22:50:34.375Z,48.10
2018-08-11T22:53:02.132Z,48.30
2018-08-11T22:55:29.812Z,48.20
2018-08-11T22:57:57.585Z,48.30
2018-08-11T23:00:25.381Z,48.30
2018-08-11T23:02:53.863Z,48.20
2018-08-11T23:05:22.072Z,48.30
2018-08-11T23:07:49.731Z,48.20
2018-08-11T23:10:17.600Z,48.30
2018-08-11T23:12:45.897Z,48.70
2018-08-11T23:15:14.982Z,49.20
2018-08-11T23:17:44.209Z,49.60
2018-08-11T23:20:12.308Z,49.80
2018-08-11T23:22:39.951Z,49.90
2018-08-11T23:25:08.484Z,49.90
2018-08-11T23:27:36.531Z,49.50
2018-08-11T23:30:05.787Z,49.20
2018-08-11T23:32:33.581Z,49.00
2018-08-11T23:35:01.228Z,49.30
2018-08-11T23:37:28.887Z,49.30
2018-08-11T23:39:56.552Z,49.60
2018-08-11T23:42:24.276Z,49.50
2018-08-11T23:44:51.911Z,49.50
2018-08-11T23:47:19.511Z,49.40
2018-08-11T23:52:22.569Z,49.60
2018-08-11T23:54:50.282Z,49.40
